Latest Weather Observations for Lombadina

IDW60801

Issued at 1:35 am WST Tuesday 21 October 2014 (issued every 30 minutes, with the page automatically refreshed every 10 minutes)

About weather observations | Map of weather stations | Latest weather observations for WA | Other Formats
Station Details ID: 503016 Name: LOMBADINA AIRSTRIP Lat: -16.52 Lon: 122.92 Height: 42.0 m
Data from the previous 72 hours. | See also: Recent months for locations in Western Australia
Date/Time
WST
Temp
°C
App
Temp
°C
Dew
Point
Rel
Hum
%
Delta-T
°C
Wind Press
QNH
hPa
Press
MSL
hPa
Rain
since 9 am
mm
Dir
 
Spd
km/h
Gust
km/h
Spd
kts
Gust
kts
21/01:30am 24.8 27.3 21.0 79 2.5 WSW 9 17 5 9 1011.1 1010.8 0.0
21/01:00am 25.1 27.3 21.2 79 2.6 WSW 11 20 6 11 1011.3 1011.0 0.0
21/12:30am 25.1 27.8 21.4 80 2.5 WSW 9 17 5 9 1011.7 1011.4 0.0
21/12:00am 25.2 27.7 21.7 81 2.3 WSW 11 20 6 11 1011.9 1011.6 0.0
 
Date/Time
WST
Temp
°C
App
Temp
°C
Dew
Point
Rel
Hum
%
Delta-T
°C
Wind Press
QNH
hPa
Press
MSL
hPa
Rain
since 9 am
mm
Dir
 
Spd
km/h
Gust
km/h
Spd
kts
Gust
kts
20/11:30pm 25.4 28.1 22.1 82 2.2 WSW 11 22 6 12 1012.2 1011.9 0.0
20/11:00pm 25.4 28.1 22.2 82 2.1 WSW 11 20 6 11 1012.6 1012.3 0.0
20/10:30pm 25.6 28.1 22.5 83 2.1 SW 13 22 7 12 1013.0 1012.7 0.0
20/10:00pm 25.8 28.4 22.6 82 2.2 SW 13 22 7 12 1013.3 1013.0 0.0
20/09:30pm 26.1 29.0 22.4 80 2.5 WSW 11 20 6 11 1013.4 1013.1 0.0
20/09:00pm 26.2 29.5 22.5 80 2.5 WSW 9 19 5 10 1013.5 1013.2 0.0
20/08:30pm 26.4 29.5 22.2 78 2.8 W 9 17 5 9 1013.3 1013.0 0.0
20/08:00pm 26.5 29.5 21.9 76 3.1 WSW 9 19 5 10 1013.3 1013.0 0.0
20/07:30pm 26.7 29.5 21.6 73 3.4 WSW 9 19 5 10 1013.1 1012.8 0.0
20/07:00pm 26.9 29.7 21.6 72 3.5 WSW 9 20 5 11 1012.9 1012.6 0.0
20/06:30pm 27.2 30.0 21.6 71 3.7 W 9 19 5 10 1012.6 1012.3 0.0
20/06:00pm 27.7 30.3 21.2 67 4.3 WSW 9 19 5 10 1012.4 1012.1 0.0
20/05:30pm 28.6 30.3 20.2 60 5.5 WSW 11 22 6 12 1012.0 1011.7 0.0
20/05:00pm 29.2 31.9 21.3 62 5.3 W 9 19 5 10 1011.9 1011.6 0.0
20/04:30pm 29.5 31.8 21.3 61 5.5 W 11 24 6 13 1011.6 1011.3 0.0
20/04:00pm 29.6 31.3 21.7 62 5.3 W 15 28 8 15 1011.6 1011.3 0.0
20/03:30pm 30.5 32.3 21.2 57 6.2 W 13 24 7 13 1011.6 1011.3 0.0
20/03:00pm 30.2 32.2 21.6 60 5.8 W 13 26 7 14 1011.7 1011.4 0.0
20/02:30pm 30.5 32.9 22.2 61 5.6 W 13 22 7 12 1011.8 1011.5 0.0
20/02:00pm 30.8 32.9 22.4 61 5.7 WNW 15 28 8 15 1012.1 1011.8 0.0
20/01:30pm 31.2 33.2 23.0 61 5.6 W 17 26 9 14 1012.4 1012.1 0.0
20/01:00pm 31.0 32.7 21.6 57 6.3 W 15 28 8 15 1012.7 1012.4 0.0
20/12:30pm 31.1 32.8 22.4 60 5.9 W 17 33 9 18 1013.2 1012.9 0.0
20/12:00pm 31.3 33.2 21.3 55 6.7 W 13 24 7 13 1013.6 1013.3 0.0
20/11:30am 30.8 33.1 22.1 59 5.9 WNW 13 26 7 14 1014.0 1013.7 0.0
20/11:00am 32.2 34.6 21.6 53 7.2 WNW 11 22 6 12 1014.3 1014.0 0.0
20/10:30am 31.1 33.1 21.5 56 6.5 WNW 13 20 7 11 1014.6 1014.3 0.0
20/10:00am 30.8 32.7 20.6 54 6.8 WNW 11 22 6 12 1015.1 1014.8 0.0
20/09:30am 31.5 32.4 16.5 40 9.4 SSW 7 15 4 8 1015.7 1015.4 0.0
20/09:00am 30.4 31.1 17.0 44 8.5 SW 9 17 5 9 1016.0 1015.7 0.4
20/08:30am 29.5 31.2 18.4 51 7.1 SW 7 13 4 7 1016.1 1015.8 0.4
20/08:00am 27.8 30.1 19.4 60 5.4 WSW 6 11 3 6 1016.0 1015.7 0.4
20/07:30am 26.7 29.4 20.7 69 4.0 SSW 7 11 4 6 1016.0 1015.7 0.4
20/07:00am 25.5 29.8 22.7 84 1.9 SSW 4 7 2 4 1015.7 1015.4 0.4
20/06:30am 24.2 29.2 23.2 94 0.7 SSW 2 6 1 3 1015.3 1015.0 0.4
20/06:00am 21.6 25.4 21.0 96 0.4 SSW 2 4 1 2 1014.9 1014.6 0.4
20/05:46am 21.2 25.2 20.5 96 0.5 CALM 0 2 0 1 1014.6 1014.3 0.4
20/05:30am 20.7 24.0 19.9 95 0.5 SW 2 4 1 2 1014.4 1014.1 0.4
20/05:27am 20.8 24.6 20.2 96 0.4 CALM 0 4 0 2 1014.4 1014.1 0.4
20/05:01am 20.5 24.0 19.6 95 0.6 CALM 0 0 0 0 1014.0 1013.7 0.0
20/05:00am 20.5 24.0 19.6 95 0.6 CALM 0 0 0 0 1014.0 1013.7 0.0
20/04:48am 20.4 24.0 19.7 96 0.4 CALM 0 0 0 0 1013.8 1013.5 0.0
20/04:47am 20.4 23.9 19.6 95 0.5 CALM 0 0 0 0 1013.8 1013.5 0.0
20/04:34am 20.7 24.4 20.0 96 0.4 CALM 0 0 0 0 1013.7 1013.4 0.0
20/04:30am 20.4 24.0 19.7 96 0.4 CALM 0 0 0 0 1013.6 1013.3 0.0
20/04:00am 21.0 24.8 20.1 95 0.6 CALM 0 0 0 0 1013.2 1012.9 0.0
20/03:30am 21.3 24.9 20.5 95 0.5 ENE 2 4 1 2 1012.9 1012.6 0.0
20/03:00am 21.2 25.0 20.2 94 0.6 CALM 0 4 0 2 1012.6 1012.3 0.0
20/02:30am 21.8 25.4 20.6 93 0.8 E 2 2 1 1 1012.5 1012.2 0.0
20/02:00am 22.8 27.1 21.2 91 1.1 CALM 0 4 0 2 1012.3 1012.0 0.0
20/01:30am 23.4 27.6 21.8 91 1.1 SW 2 7 1 4 1012.3 1012.0 0.0
20/01:00am 23.9 27.5 22.1 90 1.2 WSW 6 11 3 6 1012.3 1012.0 0.0
20/12:30am 24.3 27.4 22.2 88 1.4 WSW 9 19 5 10 1012.5 1012.2 0.0
20/12:00am 24.5 27.7 22.4 88 1.4 WSW 9 19 5 10 1012.7 1012.4 0.0
 
Date/Time
WST
Temp
°C
App
Temp
°C
Dew
Point
Rel
Hum
%
Delta-T
°C
Wind Press
QNH
hPa
Press
MSL
hPa
Rain
since 9 am
mm
Dir
 
Spd
km/h
Gust
km/h
Spd
kts
Gust
kts
19/11:30pm 24.6 27.9 22.6 89 1.3 WSW 9 19 5 10 1012.9 1012.6 0.0
19/11:00pm 24.8 28.1 22.5 87 1.5 WSW 9 17 5 9 1013.1 1012.8 0.0
19/10:30pm 24.9 28.0 22.2 85 1.8 WSW 9 17 5 9 1013.2 1012.9 0.0
19/10:00pm 25.3 28.6 22.6 85 1.8 SW 9 17 5 9 1013.3 1013.0 0.0
19/09:30pm 25.4 29.3 23.6 90 1.2 W 9 15 5 8 1013.2 1012.9 0.0
19/09:00pm 25.3 29.6 23.6 90 1.2 WSW 7 11 4 6 1013.1 1012.8 0.0
19/08:30pm 25.3 29.6 23.3 89 1.4 W 6 11 3 6 1013.0 1012.7 0.0
19/08:00pm 25.8 29.8 23.1 85 1.8 WSW 7 15 4 8 1012.8 1012.5 0.0
19/07:30pm 26.1 29.7 23.1 83 2.0 WSW 9 19 5 10 1012.7 1012.4 0.0
19/07:00pm 26.3 29.5 23.0 82 2.2 WSW 11 20 6 11 1012.5 1012.2 0.0
19/06:30pm 26.8 29.9 22.9 79 2.7 W 11 22 6 12 1012.3 1012.0 0.0
19/06:00pm 27.3 30.0 22.1 73 3.5 W 11 19 6 10 1012.1 1011.8 0.0
19/05:30pm 28.2 30.3 21.0 65 4.8 WSW 11 19 6 10 1011.7 1011.4 0.0
19/05:00pm 28.5 31.1 22.0 68 4.4 W 11 20 6 11 1011.5 1011.2 0.0
19/04:30pm 28.9 31.9 22.6 69 4.3 W 11 20 6 11 1011.3 1011.0 0.0
19/04:00pm 29.6 32.3 22.9 67 4.6 W 13 28 7 15 1011.1 1010.8 0.0
19/03:30pm 30.1 32.3 22.6 64 5.1 W 15 26 8 14 1011.2 1010.9 0.0
19/03:00pm 30.0 32.5 22.4 63 5.2 WNW 13 26 7 14 1011.0 1010.7 0.0
19/02:30pm 31.5 33.9 22.3 58 6.3 WNW 13 20 7 11 1011.1 1010.8 0.0
19/02:00pm 30.7 32.4 21.6 58 6.1 WNW 15 22 8 12 1011.3 1011.0 0.0
19/01:30pm 31.0 32.8 21.9 58 6.2 WNW 15 22 8 12 1011.7 1011.4 0.0
19/01:00pm 30.9 32.8 21.3 56 6.5 W 13 26 7 14 1012.2 1011.9 0.0
19/12:30pm 31.6 33.5 21.4 54 6.9 WNW 13 24 7 13 1012.5 1012.2 0.0
19/12:00pm 31.3 33.5 21.9 57 6.4 WNW 13 24 7 13 1012.9 1012.6 0.0
19/11:30am 31.3 33.1 21.2 55 6.8 WNW 13 24 7 13 1013.3 1013.0 0.0
19/11:00am 30.8 32.1 21.7 58 6.1 NW 17 24 9 13 1013.9 1013.6 0.0
19/10:30am 30.5 32.8 22.1 61 5.7 WNW 13 26 7 14 1014.1 1013.8 0.0
19/10:00am 31.2 33.9 22.1 58 6.2 WNW 11 19 6 10 1014.3 1014.0 0.0
19/09:30am 29.9 33.0 22.2 63 5.2 NW 9 19 5 10 1014.6 1014.3 0.0
19/09:00am 30.3 32.4 19.3 51 7.2 SW 7 15 4 8 1014.8 1014.5 0.0
19/08:30am 29.4 31.5 20.2 57 6.1 SW 9 20 5 11 1015.0 1014.7 0.0
19/08:00am 28.0 31.4 21.7 68 4.2 SSW 6 11 3 6 1015.0 1014.7 0.0
19/07:30am 26.9 30.6 22.2 75 3.2 S 6 9 3 5 1014.7 1014.4 0.0
19/07:00am 26.1 30.6 23.0 83 2.1 S 4 7 2 4 1014.6 1014.3 0.0
19/06:30am 24.8 30.6 24.0 95 0.5 CALM 0 4 0 2 1014.2 1013.9 0.0
19/06:00am 22.7 27.1 22.1 96 0.4 S 2 6 1 3 1013.7 1013.4 0.0
19/05:53am 22.1 26.2 21.5 96 0.4 SSE 2 6 1 3 1013.6 1013.3 0.0
19/05:37am 22.1 26.3 21.7 98 0.3 SE 2 4 1 2 1013.4 1013.1 0.0
19/05:36am 22.0 26.0 21.4 96 0.4 SE 2 4 1 2 1013.4 1013.1 0.0
19/05:30am 21.8 25.3 21.1 96 0.5 ESE 4 6 2 3 1013.3 1013.0 0.0
19/05:00am 21.6 25.4 21.0 96 0.4 E 2 6 1 3 1012.8 1012.5 0.0
19/04:40am 21.5 25.0 21.1 98 0.3 ESE 4 6 2 3 1012.8 1012.5 0.0
19/04:30am 22.0 26.0 21.4 96 0.4 ESE 2 4 1 2 1012.7 1012.4 0.0
19/04:00am 21.9 25.7 21.0 95 0.6 ESE 2 4 1 2 1012.4 1012.1 0.0
19/03:59am 22.0 25.9 21.2 95 0.5 ESE 2 4 1 2 1012.4 1012.1 0.0
19/03:39am 22.5 26.6 21.6 95 0.6 SE 2 4 1 2 1012.3 1012.0 0.0
19/03:35am 22.6 26.9 21.9 96 0.5 ESE 2 4 1 2 1012.3 1012.0 0.0
19/03:30am 22.1 26.0 21.2 95 0.6 ESE 2 4 1 2 1012.2 1011.9 0.0
19/03:00am 23.1 27.6 22.3 95 0.5 ESE 2 6 1 3 1011.9 1011.6 0.0
19/02:53am 22.9 27.2 22.0 95 0.6 SE 2 4 1 2 1011.8 1011.5 0.0
19/02:30am 23.3 27.9 22.4 95 0.6 SSW 2 4 1 2 1011.6 1011.3 0.0
19/02:00am 23.7 28.0 22.6 93 0.7 WSW 4 6 2 3 1011.5 1011.2 0.0
19/01:30am 24.4 28.6 23.1 92 0.9 WSW 6 11 3 6 1011.2 1010.9 0.0
19/01:00am 24.7 29.0 23.3 92 1.0 WSW 6 11 3 6 1011.3 1011.0 0.0
19/12:30am 24.9 29.0 22.9 89 1.4 WSW 6 11 3 6 1011.6 1011.3 0.0
19/12:00am 25.1 29.2 23.2 89 1.3 W 7 17 4 9 1011.9 1011.6 0.0
 
Date/Time
WST
Temp
°C
App
Temp
°C
Dew
Point
Rel
Hum
%
Delta-T
°C
Wind Press
QNH
hPa
Press
MSL
hPa
Rain
since 9 am
mm
Dir
 
Spd
km/h
Gust
km/h
Spd
kts
Gust
kts
18/11:30pm 25.3 29.4 23.2 88 1.4 W 7 13 4 7 1012.2 1011.9 0.0
18/11:00pm 25.2 29.4 23.5 90 1.2 W 7 15 4 8 1012.3 1012.0 0.0
18/10:30pm 25.0 29.1 23.0 89 1.4 WSW 6 9 3 5 1012.4 1012.1 0.0
18/10:00pm 25.6 29.7 23.3 87 1.6 W 7 17 4 9 1012.8 1012.5 0.0
18/09:30pm 25.5 29.3 22.7 84 1.9 W 7 11 4 6 1012.8 1012.5 0.0
18/09:00pm 25.6 29.6 22.8 84 1.9 W 6 9 3 5 1012.8 1012.5 0.0
18/08:30pm 25.9 29.7 23.4 86 1.7 W 9 13 5 7 1012.6 1012.3 0.0
18/08:00pm 26.1 30.3 23.5 85 1.8 W 7 13 4 7 1012.5 1012.2 0.0
18/07:30pm 26.3 30.5 23.5 84 1.9 W 7 13 4 7 1012.2 1011.9 0.0
18/07:00pm 26.6 30.7 23.2 81 2.3 W 7 13 4 7 1012.0 1011.7 0.0
18/06:30pm 27.0 30.9 22.9 78 2.8 W 7 13 4 7 1011.9 1011.6 0.0
18/06:00pm 27.4 31.0 23.0 77 3.0 W 9 17 5 9 1011.7 1011.4 0.0
18/05:30pm 28.0 31.7 22.6 72 3.7 W 7 15 4 8 1011.4 1011.1 0.0
18/05:00pm 28.9 32.0 22.2 67 4.5 WNW 9 17 5 9 1011.1 1010.8 0.0
18/04:30pm 29.2 32.1 22.4 66 4.6 WNW 11 19 6 10 1010.8 1010.5 0.0
18/04:00pm 30.0 32.9 22.4 63 5.2 WNW 11 17 6 9 1010.6 1010.3 0.0
18/03:30pm 30.3 33.2 22.4 62 5.4 WNW 11 19 6 10 1010.5 1010.2 0.0
18/03:00pm 30.2 32.3 21.7 60 5.7 NW 13 19 7 10 1010.7 1010.4 0.0
18/02:30pm 30.6 32.8 21.9 59 5.9 NW 13 20 7 11 1010.8 1010.5 0.0
18/02:00pm 31.1 33.6 22.5 60 5.9 WNW 13 19 7 10 1011.0 1010.7 0.0
18/01:30pm 31.7 34.1 22.3 57 6.4 NW 13 20 7 11 1011.3 1011.0 0.0
18/01:00pm 30.7 33.3 22.7 62 5.5 NW 13 20 7 11 1011.7 1011.4 0.0
18/12:30pm 31.5 34.0 22.5 59 6.2 NW 13 20 7 11 1012.2 1011.9 0.0
18/12:00pm 30.5 33.4 23.2 65 5.0 NW 13 20 7 11 1012.8 1012.5 0.0
18/11:30am 30.3 33.5 23.7 68 4.6 NW 13 20 7 11 1013.3 1013.0 0.0
18/11:00am 31.3 34.4 23.6 63 5.3 WNW 13 19 7 10 1013.7 1013.4 0.0
18/10:30am 30.2 33.3 22.8 64 5.1 NNW 11 20 6 11 1014.1 1013.8 0.0
18/10:00am 30.6 34.1 22.9 63 5.3 N 9 20 5 11 1014.3 1014.0 0.0
18/09:30am 30.0 33.6 22.1 62 5.4 WNW 6 15 3 8 1014.5 1014.2 0.0
18/09:00am 31.1 33.5 18.9 48 7.9 SSW 4 9 2 5 1014.6 1014.3 0.0
18/08:30am 30.0 32.6 20.0 55 6.6 S 6 11 3 6 1014.8 1014.5 0.0
18/08:00am 28.9 32.6 22.2 67 4.5 SSW 6 11 3 6 1014.7 1014.4 0.0
18/07:30am 27.6 32.8 23.5 78 2.8 S 2 6 1 3 1014.5 1014.2 0.0
18/07:00am 26.8 32.2 24.5 87 1.6 SE 4 6 2 3 1014.2 1013.9 0.0
18/06:30am 25.1 30.7 24.3 95 0.6 SSE 2 6 1 3 1014.0 1013.7 0.0
18/06:12am 23.9 28.6 23.4 97 0.3 SSE 4 6 2 3 1013.9 1013.6 0.0
18/06:00am 23.7 28.2 23.0 96 0.5 SE 4 6 2 3 1013.8 1013.5 0.0
18/05:30am 22.6 26.7 22.2 98 0.3 SSE 4 7 2 4 1013.6 1013.3 0.0
18/05:00am 22.2 25.8 21.2 94 0.7 SSE 4 7 2 4 1013.1 1012.8 0.0
18/04:37am 22.4 26.3 21.8 96 0.4 SSE 4 6 2 3 1013.0 1012.7 0.0
18/04:30am 22.5 27.1 21.7 95 0.5 CALM 0 2 0 1 1012.9 1012.6 0.0
18/04:00am 22.7 26.6 21.9 95 0.5 ESE 4 6 2 3 1012.6 1012.3 0.0
18/03:30am 22.3 25.9 21.3 94 0.7 ESE 4 6 2 3 1012.5 1012.2 0.0
18/03:00am 22.9 27.1 21.8 93 0.7 E 2 4 1 2 1012.3 1012.0 0.0
18/02:30am 22.6 26.4 21.6 94 0.7 ESE 4 6 2 3 1012.2 1011.9 0.0
18/02:00am 23.0 27.2 21.8 93 0.8 SE 2 4 1 2 1012.0 1011.7 0.0

Other Formats:

Comma delimited format used in spreadsheet applications
http://www.bom.gov.au/fwo/IDW60801/IDW60801.99206.axf

JavaScript Object Notation format (JSON) in row-major order
http://www.bom.gov.au/fwo/IDW60801/IDW60801.99206.json